KDXR/DXR METAR and TAF weather

Enter ICAO airport designator
Station Type Date Time Source
KDXR METAR 2020/09/30 14:53 UTC NOAA

KDXR 301453Z 25008G17KT 10SM BKN018 BKN040 OVC048 16/12 A2967 RMK AO2 RAB09E18 SLP045 P0000 60000 T01610122 53025


Station Type Date Time Source
KDXR Decoded METAR 2020/09/30 14:53 UTC NOAA

DANBURY MUNICIPAL AIRPORT, CT, United States (KDXR) 41-22N 073-29W 139M
Sep 30, 2020 - 10:53 AM EDT / 2020.09.30 1453 UTC
Wind: from the WSW (250 degrees) at 9 MPH (8 KT) gusting to 20 MPH (17 KT):0
Visibility: 10 mile(s):0
Sky conditions: overcast
Precipitation last hour: A trace
Temperature: 61.0 F (16.1 C)
Dew Point: 54.0 F (12.2 C)
Relative Humidity: 77%
Pressure (altimeter): 29.67 in. Hg (1004 hPa)
Pressure tendency: 0.07 inches (2.5 hPa) higher than three hours ago
ob: KDXR 301453Z 25008G17KT 10SM BKN018 BKN040 OVC048 16/12 A2967 RMK AO2 RAB09E18 SLP045 P0000 60000 T01610122 53025
cycle: 15

Station Type Date Time Source
KDXR TAF UTC NOAA

Error!

Example: see airport list